Time;durP1;ratioP1;P1;durP2;ratioP2;P2;SDS_P1;SDS_P2;PMS_P1;PMS_P2;Temp;Humidity;BMP_temperature;BMP_pressure;BME280_temperature;BME280_humidity;BME280_pressure;Samples;Min_cycle;Max_cycle;Signal;HPM_P1;HPM_P2
2022/10/06 00:00:18;;;;;;;;;;;;;;;;;;2124118;28;20021;-43
2022/10/06 00:01:19;;;;;;;;;;;;;;;;;;2124272;28;19923;-43
2022/10/06 00:02:20;;;;;;;;;;;;;;;;;;2124260;27;20364;-43
2022/10/06 00:03:21;;;;;;;;;;;;;;;;;;2124316;28;19924;-43
2022/10/06 00:04:22;;;;;;;;;;;;;;;;;;2124143;28;20391;-43
2022/10/06 00:05:23;;;;;;;;;;;;;;;;;;2124272;28;19962;-43
2022/10/06 00:06:24;;;;;;;;;;;;;;;;;;2124187;27;20425;-43
2022/10/06 00:07:25;;;;;;;;;;;;;;;;;;2124267;28;19923;-43
2022/10/06 00:08:25;;;;;;;;;;;;;;;;;;2124238;28;20249;-43
2022/10/06 00:09:27;;;;;;;;;;;;;;;;;;2124125;28;19931;-43
2022/10/06 00:10:27;;;;;;;;;;;;;;;;;;2123935;28;20006;-43
2022/10/06 00:11:28;;;;;;;;;;;;;;;;;;2127499;27;20384;-43
2022/10/06 00:12:29;;;;;;;;;;;;;;;;;;2132760;27;20383;-43
2022/10/06 00:13:30;;;;;;;;;;;;;;;;;;2133098;27;20375;-44
2022/10/06 00:14:31;;;;;;;;;;;;;;;;;;2132803;27;19923;-45
2022/10/06 00:15:31;;;;;;;;;;;;;;;;;;2132607;27;19923;-44
2022/10/06 00:16:32;;;;;;;;;;;;;;;;;;2132771;27;20133;-44
2022/10/06 00:17:33;;;;;;;;;;;;;;;;;;2132982;27;19946;-43
2022/10/06 00:18:34;;;;;;;;;;;;;;;;;;2132933;27;19930;-44
2022/10/06 00:19:35;;;;;;;;;;;;;;;;;;2132549;27;19952;-44
2022/10/06 00:20:36;;;;;;;;;;;;;;;;;;2132774;27;20076;-43
2022/10/06 00:21:36;;;;;;;;;;;;;;;;;;2132518;27;19980;-43
2022/10/06 00:22:37;;;;;;;;;;;;;;;;;;2132723;27;19923;-43
2022/10/06 00:23:38;;;;;;;;;;;;;;;;;;2132778;27;19991;-43
2022/10/06 00:24:39;;;;;;;;;;;;;;;;;;2132595;27;20295;-43
2022/10/06 00:25:40;;;;;;;;;;;;;;;;;;2132531;27;19934;-43
2022/10/06 00:26:41;;;;;;;;;;;;;;;;;;2132513;27;19927;-44
2022/10/06 00:27:41;;;;;;;;;;;;;;;;;;2132759;27;20375;-43
2022/10/06 00:28:43;;;;;;;;;;;;;;;;;;2132557;27;20425;-43
2022/10/06 00:29:43;;;;;;;;;;;;;;;;;;2132553;27;19968;-43
2022/10/06 00:30:45;;;;;;;;;;;;;;;;;;2132544;27;19923;-43
2022/10/06 00:31:46;;;;;;;;;;;;;;;;;;2132633;27;19923;-43
2022/10/06 00:32:47;;;;;;;;;;;;;;;;;;2132528;27;19923;-43
2022/10/06 00:33:48;;;;;;;;;;;;;;;;;;2132566;27;19923;-43
2022/10/06 00:34:49;;;;;;;;;;;;;;;;;;2132736;27;19933;-45
2022/10/06 00:35:49;;;;;;;;;;;;;;;;;;2132534;27;20444;-45
2022/10/06 00:36:50;;;;;;;;;;;;;;;;;;2132562;27;20372;-44
2022/10/06 00:37:51;;;;;;;;;;;;;;;;;;2132501;27;19973;-46
2022/10/06 00:38:52;;;;;;;;;;;;;;;;;;2132605;27;20418;-44
2022/10/06 00:39:53;;;;;;;;;;;;;;;;;;2132335;27;19931;-44
2022/10/06 00:40:54;;;;;;;;;;;;;;;;;;2132584;27;20509;-44
2022/10/06 00:41:55;;;;;;;;;;;;;;;;;;2132596;27;20022;-45
2022/10/06 00:42:55;;;;;;;;;;;;;;;;;;2132395;27;20018;-45
2022/10/06 00:43:56;;;;;;;;;;;;;;;;;;2132530;27;20403;-46
2022/10/06 00:44:57;;;;;;;;;;;;;;;;;;2132450;27;19930;-44
2022/10/06 00:45:58;;;;;;;;;;;;;;;;;;2129727;27;19930;-44
2022/10/06 00:46:59;;;;;;;;;;;;;;;;;;2123767;27;20407;-44
2022/10/06 00:47:59;;;;;;;;;;;;;;;;;;2124067;28;19959;-44
2022/10/06 00:49:00;;;;;;;;;;;;;;;;;;2123954;28;20176;-44
2022/10/06 00:50:01;;;;;;;;;;;;;;;;;;2123896;28;19923;-45
2022/10/06 00:51:02;;;;;;;;;;;;;;;;;;2123945;28;19923;-44
2022/10/06 00:52:03;;;;;;;;;;;;;;;;;;2124013;27;19924;-44
2022/10/06 00:53:04;;;;;;;;;;;;;;;;;;2123791;28;19978;-45
2022/10/06 00:54:04;;;;;;;;;;;;;;;;;;2123897;28;20007;-44
2022/10/06 00:55:08;;;;;;;;;;;;;;;;;;2123833;28;20296;-44
2022/10/06 00:56:08;;;;;;;;;;;;;;;;;;2123824;28;19924;-45
2022/10/06 00:57:09;;;;;;;;;;;;;;;;;;2123754;27;20021;-45
2022/10/06 00:58:10;;;;;;;;;;;;;;;;;;2123758;28;19930;-44
2022/10/06 00:59:11;;;;;;;;;;;;;;;;;;2123798;28;19931;-44
2022/10/06 01:00:12;;;;;;;;;;;;;;;;;;2123761;28;19928;-44
2022/10/06 01:01:13;;;;;;;;;;;;;;;;;;2123797;28;19927;-44
2022/10/06 01:02:13;;;;;;;;;;;;;;;;;;2123742;27;19923;-45
2022/10/06 01:03:14;;;;;;;;;;;;;;;;;;2123981;28;19924;-44
2022/10/06 01:04:16;;;;;;;;;;;;;;;;;;2123747;28;20447;-45
2022/10/06 01:05:17;;;;;;;;;;;;;;;;;;2123720;28;19931;-44
2022/10/06 01:06:18;;;;;;;;;;;;;;;;;;2123759;28;19962;-44
2022/10/06 01:07:19;;;;;;;;;;;;;;;;;;2123727;27;19961;-44
2022/10/06 01:08:19;;;;;;;;;;;;;;;;;;2123849;28;19924;-45
2022/10/06 01:09:20;;;;;;;;;;;;;;;;;;2126302;27;20412;-45
2022/10/06 01:10:21;;;;;;;;;;;;;;;;;;2132326;27;19923;-44
2022/10/06 01:11:22;;;;;;;;;;;;;;;;;;2129306;27;19975;-45
2022/10/06 01:12:23;;;;;;;;;;;;;;;;;;2123811;28;19947;-44
2022/10/06 01:13:24;;;;;;;;;;;;;;;;;;2123771;28;20031;-45
2022/10/06 01:14:25;;;;;;;;;;;;;;;;;;2123673;28;19978;-45
2022/10/06 01:15:26;;;;;;;;;;;;;;;;;;2123846;28;19957;-45
2022/10/06 01:16:26;;;;;;;;;;;;;;;;;;2123591;27;19969;-44
2022/10/06 01:17:28;;;;;;;;;;;;;;;;;;2123623;28;19980;-44
2022/10/06 01:18:29;;;;;;;;;;;;;;;;;;2123865;28;20399;-44
2022/10/06 01:19:30;;;;;;;;;;;;;;;;;;2123675;28;19923;-45
2022/10/06 01:20:31;;;;;;;;;;;;;;;;;;2123549;28;19930;-45
2022/10/06 01:21:32;;;;;;;;;;;;;;;;;;2123759;27;19930;-45
2022/10/06 01:22:33;;;;;;;;;;;;;;;;;;2123805;28;20386;-46
2022/10/06 01:23:33;;;;;;;;;;;;;;;;;;2123655;28;19971;-45
2022/10/06 01:24:34;;;;;;;;;;;;;;;;;;2123603;28;19930;-45
2022/10/06 01:25:35;;;;;;;;;;;;;;;;;;2123584;28;19923;-45
2022/10/06 01:26:36;;;;;;;;;;;;;;;;;;2123718;27;19927;-44
2022/10/06 01:27:37;;;;;;;;;;;;;;;;;;2123559;28;19970;-45
2022/10/06 01:28:37;;;;;;;;;;;;;;;;;;2123646;28;19928;-44
2022/10/06 01:29:38;;;;;;;;;;;;;;;;;;2123633;28;19973;-45
2022/10/06 01:30:39;;;;;;;;;;;;;;;;;;2123677;28;19927;-45
2022/10/06 01:31:40;;;;;;;;;;;;;;;;;;2123546;27;20124;-45
2022/10/06 01:32:41;;;;;;;;;;;;;;;;;;2123718;28;20387;-45
2022/10/06 01:33:42;;;;;;;;;;;;;;;;;;2123702;28;19923;-44
2022/10/06 01:34:42;;;;;;;;;;;;;;;;;;2123565;28;19966;-45
2022/10/06 01:35:43;;;;;;;;;;;;;;;;;;2123795;28;19972;-45
2022/10/06 01:36:45;;;;;;;;;;;;;;;;;;2123505;27;19931;-44
2022/10/06 01:37:46;;;;;;;;;;;;;;;;;;2123742;28;19967;-44
2022/10/06 01:38:47;;;;;;;;;;;;;;;;;;2123810;28;19931;-45
2022/10/06 01:39:48;;;;;;;;;;;;;;;;;;2123624;28;19975;-43
2022/10/06 01:40:48;;;;;;;;;;;;;;;;;;2123471;27;19923;-43
2022/10/06 01:41:49;;;;;;;;;;;;;;;;;;2122993;27;20449;-43
2022/10/06 01:42:50;;;;;;;;;;;;;;;;;;2131420;27;19924;-43
2022/10/06 01:43:51;;;;;;;;;;;;;;;;;;2132435;27;20029;-43
2022/10/06 01:44:52;;;;;;;;;;;;;;;;;;2132104;27;19923;-43
2022/10/06 01:45:53;;;;;;;;;;;;;;;;;;2132352;27;19929;-46
2022/10/06 01:46:54;;;;;;;;;;;;;;;;;;2132027;27;19923;-45
2022/10/06 01:47:55;;;;;;;;;;;;;;;;;;2132104;27;20003;-44
2022/10/06 01:48:56;;;;;;;;;;;;;;;;;;2132118;27;19934;-45
2022/10/06 01:49:58;;;;;;;;;;;;;;;;;;2132031;27;19926;-44
2022/10/06 01:50:59;;;;;;;;;;;;;;;;;;2132222;27;19927;-44
2022/10/06 01:52:00;;;;;;;;;;;;;;;;;;2132247;27;19923;-43
2022/10/06 01:53:00;;;;;;;;;;;;;;;;;;2132031;27;19958;-43
2022/10/06 01:54:01;;;;;;;;;;;;;;;;;;2132199;27;20432;-43
2022/10/06 01:55:02;;;;;;;;;;;;;;;;;;2131966;27;20424;-43
2022/10/06 01:56:03;;;;;;;;;;;;;;;;;;2132090;27;19927;-43
2022/10/06 01:57:04;;;;;;;;;;;;;;;;;;2131901;27;19968;-43
2022/10/06 01:58:05;;;;;;;;;;;;;;;;;;2131940;27;19930;-43
2022/10/06 01:59:05;;;;;;;;;;;;;;;;;;2131890;27;19923;-43
2022/10/06 02:00:06;;;;;;;;;;;;;;;;;;2132002;27;20021;-43
2022/10/06 02:01:07;;;;;;;;;;;;;;;;;;2132006;27;19952;-43
2022/10/06 02:02:08;;;;;;;;;;;;;;;;;;2131993;27;20375;-43
2022/10/06 02:03:09;;;;;;;;;;;;;;;;;;2131955;27;19930;-43
2022/10/06 02:04:10;;;;;;;;;;;;;;;;;;2132184;27;19945;-43
2022/10/06 02:05:10;;;;;;;;;;;;;;;;;;2131951;27;19930;-43
2022/10/06 02:06:11;;;;;;;;;;;;;;;;;;2131958;27;19930;-43
2022/10/06 02:07:12;;;;;;;;;;;;;;;;;;2132127;27;19923;-43
2022/10/06 02:08:13;;;;;;;;;;;;;;;;;;2131983;27;19923;-43
2022/10/06 02:09:14;;;;;;;;;;;;;;;;;;2132097;27;20006;-43
2022/10/06 02:10:15;;;;;;;;;;;;;;;;;;2132187;27;19930;-43
2022/10/06 02:11:17;;;;;;;;;;;;;;;;;;2131846;27;19935;-43
2022/10/06 02:12:17;;;;;;;;;;;;;;;;;;2131939;27;19930;-43
2022/10/06 02:13:19;;;;;;;;;;;;;;;;;;2132173;27;19923;-43
2022/10/06 02:14:20;;;;;;;;;;;;;;;;;;2131975;27;19972;-43
2022/10/06 02:15:20;;;;;;;;;;;;;;;;;;2132230;27;20334;-45
2022/10/06 02:16:22;;;;;;;;;;;;;;;;;;2131947;27;20335;-45
2022/10/06 02:17:23;;;;;;;;;;;;;;;;;;2131586;27;20314;-45
2022/10/06 02:18:24;;;;;;;;;;;;;;;;;;2131969;27;19962;-44
2022/10/06 02:19:24;;;;;;;;;;;;;;;;;;2131806;27;20283;-44
2022/10/06 02:20:25;;;;;;;;;;;;;;;;;;2131859;27;20025;-45
2022/10/06 02:21:26;;;;;;;;;;;;;;;;;;2131738;27;20033;-44
2022/10/06 02:22:27;;;;;;;;;;;;;;;;;;2131910;27;19923;-45
2022/10/06 02:23:27;;;;;;;;;;;;;;;;;;2131730;27;19991;-44
2022/10/06 02:24:29;;;;;;;;;;;;;;;;;;2131811;27;20420;-45
2022/10/06 02:25:29;;;;;;;;;;;;;;;;;;2131777;27;20407;-46
2022/10/06 02:26:31;;;;;;;;;;;;;;;;;;2131825;27;19930;-45
2022/10/06 02:27:31;;;;;;;;;;;;;;;;;;2131935;27;19927;-45
2022/10/06 02:28:33;;;;;;;;;;;;;;;;;;2131783;27;19930;-45
2022/10/06 02:29:34;;;;;;;;;;;;;;;;;;2131932;27;20141;-45
2022/10/06 02:30:35;;;;;;;;;;;;;;;;;;2131796;27;19923;-45
2022/10/06 02:31:36;;;;;;;;;;;;;;;;;;2131739;27;19926;-45
2022/10/06 02:32:37;;;;;;;;;;;;;;;;;;2131776;27;19962;-44
2022/10/06 02:33:38;;;;;;;;;;;;;;;;;;2131781;27;19930;-44
2022/10/06 02:34:39;;;;;;;;;;;;;;;;;;2131804;27;20424;-44
2022/10/06 02:35:41;;;;;;;;;;;;;;;;;;2131891;27;20336;-45
2022/10/06 02:36:42;;;;;;;;;;;;;;;;;;2131664;27;19930;-44
2022/10/06 02:37:43;;;;;;;;;;;;;;;;;;2131773;27;19930;-44
2022/10/06 02:38:44;;;;;;;;;;;;;;;;;;2131865;27;19929;-45
2022/10/06 02:39:45;;;;;;;;;;;;;;;;;;2131669;27;19923;-44
2022/10/06 02:40:45;;;;;;;;;;;;;;;;;;2131711;27;19930;-45
2022/10/06 02:41:46;;;;;;;;;;;;;;;;;;2131697;27;19972;-44
2022/10/06 02:42:47;;;;;;;;;;;;;;;;;;2131835;27;20037;-44
2022/10/06 02:43:48;;;;;;;;;;;;;;;;;;2131708;27;19923;-45
2022/10/06 02:44:51;;;;;;;;;;;;;;;;;;2131807;27;19923;-45
2022/10/06 02:45:51;;;;;;;;;;;;;;;;;;2131689;27;19945;-45
2022/10/06 02:46:52;;;;;;;;;;;;;;;;;;2131721;27;19923;-44
2022/10/06 02:47:53;;;;;;;;;;;;;;;;;;2131905;27;19954;-45
2022/10/06 02:48:54;;;;;;;;;;;;;;;;;;2131809;27;19930;-44
2022/10/06 02:49:55;;;;;;;;;;;;;;;;;;2131723;27;19972;-45
2022/10/06 02:50:56;;;;;;;;;;;;;;;;;;2131753;27;20129;-45
2022/10/06 02:51:56;;;;;;;;;;;;;;;;;;2131835;27;19931;-44
2022/10/06 02:52:57;;;;;;;;;;;;;;;;;;2131758;27;20356;-44
2022/10/06 02:53:58;;;;;;;;;;;;;;;;;;2132825;27;19923;-43
2022/10/06 02:54:59;;;;;;;;;;;;;;;;;;2133186;27;20011;-43
2022/10/06 02:55:59;;;;;;;;;;;;;;;;;;2133280;27;19962;-44
2022/10/06 02:57:00;;;;;;;;;;;;;;;;;;2133175;27;19923;-45
2022/10/06 02:58:02;;;;;;;;;;;;;;;;;;2133251;27;20046;-44
2022/10/06 02:59:03;;;;;;;;;;;;;;;;;;2133258;27;20387;-44
2022/10/06 03:00:06;;;;;;;;;;;;;;;;;;2133054;27;19930;-44
2022/10/06 03:01:07;;;;;;;;;;;;;;;;;;2133346;27;20062;-43
2022/10/06 03:02:07;;;;;;;;;;;;;;;;;;2132999;27;19924;-44
2022/10/06 03:03:08;;;;;;;;;;;;;;;;;;2133538;27;19930;-44
2022/10/06 03:04:10;;;;;;;;;;;;;;;;;;2133166;27;19923;-44
2022/10/06 03:05:11;;;;;;;;;;;;;;;;;;2133236;27;19930;-44
2022/10/06 03:06:20;;;;;;;;;;;;;;;;;;2133277;27;19946;-44
2022/10/06 03:07:21;;;;;;;;;;;;;;;;;;2133291;27;19923;-44
2022/10/06 03:08:22;;;;;;;;;;;;;;;;;;2133088;27;19968;-44
2022/10/06 03:09:23;;;;;;;;;;;;;;;;;;2133269;27;19930;-44
2022/10/06 03:10:23;;;;;;;;;;;;;;;;;;2133290;27;20352;-44
2022/10/06 03:11:24;;;;;;;;;;;;;;;;;;2132853;27;19992;-44
2022/10/06 03:12:25;;;;;;;;;;;;;;;;;;2133344;27;19930;-44
2022/10/06 03:13:26;;;;;;;;;;;;;;;;;;2132993;27;19930;-44
2022/10/06 03:14:27;;;;;;;;;;;;;;;;;;2133080;27;19923;-44
2022/10/06 03:15:28;;;;;;;;;;;;;;;;;;2133216;27;20014;-42
2022/10/06 03:16:29;;;;;;;;;;;;;;;;;;2133000;27;19927;-42
2022/10/06 03:17:30;;;;;;;;;;;;;;;;;;2133000;27;19923;-42
2022/10/06 03:18:30;;;;;;;;;;;;;;;;;;2133267;27;19948;-42
2022/10/06 03:19:32;;;;;;;;;;;;;;;;;;2133228;27;20300;-43
2022/10/06 03:20:32;;;;;;;;;;;;;;;;;;2133054;27;20010;-43
2022/10/06 03:21:33;;;;;;;;;;;;;;;;;;2133068;27;20292;-43
2022/10/06 03:22:34;;;;;;;;;;;;;;;;;;2133025;27;20324;-43
2022/10/06 03:23:35;;;;;;;;;;;;;;;;;;2133150;27;19923;-43
2022/10/06 03:24:35;;;;;;;;;;;;;;;;;;2132991;27;20036;-43
2022/10/06 03:25:36;;;;;;;;;;;;;;;;;;2133211;27;19927;-43
2022/10/06 03:26:37;;;;;;;;;;;;;;;;;;2132989;27;19934;-43
2022/10/06 03:27:38;;;;;;;;;;;;;;;;;;2133149;27;19924;-43
2022/10/06 03:28:39;;;;;;;;;;;;;;;;;;2133052;27;19923;-43
2022/10/06 03:29:40;;;;;;;;;;;;;;;;;;2133037;27;19927;-43
2022/10/06 03:30:40;;;;;;;;;;;;;;;;;;2133328;27;19962;-44
2022/10/06 03:31:42;;;;;;;;;;;;;;;;;;2132969;27;20295;-45
2022/10/06 03:32:42;;;;;;;;;;;;;;;;;;2133123;27;19923;-46
2022/10/06 03:33:43;;;;;;;;;;;;;;;;;;2133017;27;20375;-45
2022/10/06 03:34:45;;;;;;;;;;;;;;;;;;2132848;27;19938;-45
2022/10/06 03:35:46;;;;;;;;;;;;;;;;;;2132909;27;19927;-45
2022/10/06 03:36:47;;;;;;;;;;;;;;;;;;2133129;27;20352;-45
2022/10/06 03:37:48;;;;;;;;;;;;;;;;;;2132870;27;19929;-45
2022/10/06 03:38:49;;;;;;;;;;;;;;;;;;2133017;27;19968;-45
2022/10/06 03:39:49;;;;;;;;;;;;;;;;;;2132889;27;19930;-45
2022/10/06 03:40:50;;;;;;;;;;;;;;;;;;2133162;27;20026;-44
2022/10/06 03:41:51;;;;;;;;;;;;;;;;;;2132986;27;19927;-45
2022/10/06 03:42:52;;;;;;;;;;;;;;;;;;2132920;27;20114;-46
2022/10/06 03:43:53;;;;;;;;;;;;;;;;;;2133073;27;20417;-44
2022/10/06 03:44:54;;;;;;;;;;;;;;;;;;2132914;27;20366;-45
2022/10/06 03:45:54;;;;;;;;;;;;;;;;;;2132908;27;19923;-45
2022/10/06 03:46:55;;;;;;;;;;;;;;;;;;2133023;27;19935;-45
2022/10/06 03:47:56;;;;;;;;;;;;;;;;;;2133018;27;19927;-46
2022/10/06 03:48:58;;;;;;;;;;;;;;;;;;2132984;27;19923;-45
2022/10/06 03:49:58;;;;;;;;;;;;;;;;;;2133081;27;19927;-45
2022/10/06 03:50:59;;;;;;;;;;;;;;;;;;2132844;27;19974;-46
2022/10/06 03:52:00;;;;;;;;;;;;;;;;;;2133042;27;20021;-46
2022/10/06 03:53:01;;;;;;;;;;;;;;;;;;2133122;27;19923;-45
2022/10/06 03:54:02;;;;;;;;;;;;;;;;;;2132809;27;19974;-46
2022/10/06 03:55:03;;;;;;;;;;;;;;;;;;2132793;27;19930;-46
2022/10/06 03:56:03;;;;;;;;;;;;;;;;;;2132739;27;19930;-45
2022/10/06 03:57:04;;;;;;;;;;;;;;;;;;2132714;27;19970;-45
2022/10/06 03:58:05;;;;;;;;;;;;;;;;;;2132639;27;19923;-45
2022/10/06 03:59:06;;;;;;;;;;;;;;;;;;2132771;27;19969;-44
2022/10/06 04:00:06;;;;;;;;;;;;;;;;;;2132694;27;19934;-45
2022/10/06 04:01:07;;;;;;;;;;;;;;;;;;2132781;27;19923;-45
2022/10/06 04:02:10;;;;;;;;;;;;;;;;;;2132789;27;19930;-45
2022/10/06 04:03:11;;;;;;;;;;;;;;;;;;2133067;27;19923;-43
2022/10/06 04:04:11;;;;;;;;;;;;;;;;;;2132360;27;19923;-43
2022/10/06 04:05:12;;;;;;;;;;;;;;;;;;2132612;27;20455;-43
2022/10/06 04:06:13;;;;;;;;;;;;;;;;;;2132928;27;19930;-45
2022/10/06 04:07:14;;;;;;;;;;;;;;;;;;2132689;27;19923;-44
2022/10/06 04:08:15;;;;;;;;;;;;;;;;;;2132838;27;20309;-45
2022/10/06 04:09:15;;;;;;;;;;;;;;;;;;2133028;27;19970;-43
2022/10/06 04:10:16;;;;;;;;;;;;;;;;;;2132844;27;19927;-43
2022/10/06 04:11:17;;;;;;;;;;;;;;;;;;2132412;27;19923;-43
2022/10/06 04:12:18;;;;;;;;;;;;;;;;;;2132641;27;20371;-43
2022/10/06 04:13:19;;;;;;;;;;;;;;;;;;2132805;27;19929;-43
2022/10/06 04:14:19;;;;;;;;;;;;;;;;;;2132613;27;19924;-43
2022/10/06 04:15:20;;;;;;;;;;;;;;;;;;2132752;27;19930;-43
2022/10/06 04:16:21;;;;;;;;;;;;;;;;;;2132585;27;20003;-43
2022/10/06 04:17:22;;;;;;;;;;;;;;;;;;2132645;27;20388;-43
2022/10/06 04:18:23;;;;;;;;;;;;;;;;;;2132872;27;19924;-43
2022/10/06 04:19:24;;;;;;;;;;;;;;;;;;2132750;27;19930;-43
2022/10/06 04:20:25;;;;;;;;;;;;;;;;;;2132642;27;20504;-43
2022/10/06 04:21:25;;;;;;;;;;;;;;;;;;2132635;27;20252;-43
2022/10/06 04:22:26;;;;;;;;;;;;;;;;;;2132702;27;20289;-43
2022/10/06 04:23:27;;;;;;;;;;;;;;;;;;2132603;27;19923;-43
2022/10/06 04:24:28;;;;;;;;;;;;;;;;;;2132719;27;20013;-43
2022/10/06 04:25:29;;;;;;;;;;;;;;;;;;2132818;27;20489;-43
2022/10/06 04:26:29;;;;;;;;;;;;;;;;;;2132483;27;19927;-43
2022/10/06 04:27:30;;;;;;;;;;;;;;;;;;2132580;27;19930;-43
2022/10/06 04:28:31;;;;;;;;;;;;;;;;;;2132641;27;19923;-43
2022/10/06 04:29:33;;;;;;;;;;;;;;;;;;2132517;27;19923;-42
2022/10/06 04:30:33;;;;;;;;;;;;;;;;;;2132587;27;19923;-43
2022/10/06 04:31:35;;;;;;;;;;;;;;;;;;2132307;27;19970;-43
2022/10/06 04:32:36;;;;;;;;;;;;;;;;;;2132651;27;19927;-43
2022/10/06 04:33:37;;;;;;;;;;;;;;;;;;2132545;27;20291;-43
2022/10/06 04:34:38;;;;;;;;;;;;;;;;;;2132553;27;19976;-43
2022/10/06 04:35:39;;;;;;;;;;;;;;;;;;2132529;27;19972;-43
2022/10/06 04:36:39;;;;;;;;;;;;;;;;;;2132530;27;20572;-43
2022/10/06 04:37:40;;;;;;;;;;;;;;;;;;2132905;27;19972;-43
2022/10/06 04:38:41;;;;;;;;;;;;;;;;;;2132522;27;20013;-43
2022/10/06 04:39:42;;;;;;;;;;;;;;;;;;2132534;27;20388;-43
2022/10/06 04:40:43;;;;;;;;;;;;;;;;;;2132482;27;19923;-43
2022/10/06 04:41:46;;;;;;;;;;;;;;;;;;2132626;27;19963;-44
2022/10/06 04:42:46;;;;;;;;;;;;;;;;;;2132465;27;20387;-45
2022/10/06 04:43:47;;;;;;;;;;;;;;;;;;2132655;27;19923;-45
2022/10/06 04:44:48;;;;;;;;;;;;;;;;;;2132422;27;20005;-45
2022/10/06 04:45:49;;;;;;;;;;;;;;;;;;2132465;27;20381;-45
2022/10/06 04:46:50;;;;;;;;;;;;;;;;;;2132390;27;19930;-45
2022/10/06 04:47:50;;;;;;;;;;;;;;;;;;2132504;27;20013;-45
2022/10/06 04:48:51;;;;;;;;;;;;;;;;;;2132471;27;20030;-45
2022/10/06 04:49:52;;;;;;;;;;;;;;;;;;2132388;27;19923;-45
2022/10/06 04:50:53;;;;;;;;;;;;;;;;;;2132636;27;19931;-44
2022/10/06 04:51:54;;;;;;;;;;;;;;;;;;2132384;27;20018;-44
2022/10/06 04:52:55;;;;;;;;;;;;;;;;;;2132477;27;20160;-45
2022/10/06 04:53:56;;;;;;;;;;;;;;;;;;2132388;27;19923;-44
2022/10/06 04:54:57;;;;;;;;;;;;;;;;;;2132320;27;19983;-45
2022/10/06 04:55:58;;;;;;;;;;;;;;;;;;2132565;27;19965;-46
2022/10/06 04:56:59;;;;;;;;;;;;;;;;;;2132306;27;19923;-44
2022/10/06 04:58:00;;;;;;;;;;;;;;;;;;2132375;27;20017;-45
2022/10/06 04:59:00;;;;;;;;;;;;;;;;;;2132586;27;20430;-43
2022/10/06 05:01:21;;;;;;;;;;;;;;;;;;2132328;27;19923;-43
2022/10/06 05:02:21;;;;;;;;;;;;;;;;;;2132360;27;19923;-43
2022/10/06 05:03:23;;;;;;;;;;;;;;;;;;2132330;27;19923;-43
2022/10/06 05:04:23;;;;;;;;;;;;;;;;;;2132515;27;19930;-43
2022/10/06 05:05:24;;;;;;;;;;;;;;;;;;2132411;27;20367;-43
2022/10/06 05:06:25;;;;;;;;;;;;;;;;;;2132376;27;19927;-43
2022/10/06 05:07:26;;;;;;;;;;;;;;;;;;2132296;27;19931;-43
2022/10/06 05:08:27;;;;;;;;;;;;;;;;;;2132326;27;19927;-43
2022/10/06 05:09:28;;;;;;;;;;;;;;;;;;2132383;27;19962;-43
2022/10/06 05:10:29;;;;;;;;;;;;;;;;;;2132524;27;20303;-45
2022/10/06 05:11:30;;;;;;;;;;;;;;;;;;2132133;27;20436;-44
2022/10/06 05:12:31;;;;;;;;;;;;;;;;;;2132366;27;19923;-44
2022/10/06 05:13:32;;;;;;;;;;;;;;;;;;2132312;27;19977;-45
2022/10/06 05:14:33;;;;;;;;;;;;;;;;;;2132306;27;19923;-45
2022/10/06 05:15:34;;;;;;;;;;;;;;;;;;2132326;27;20002;-44
2022/10/06 05:16:36;;;;;;;;;;;;;;;;;;2131351;27;20319;-45
2022/10/06 05:17:37;;;;;;;;;;;;;;;;;;2132396;27;19935;-45
2022/10/06 05:18:38;;;;;;;;;;;;;;;;;;2132362;27;20257;-45
2022/10/06 05:19:39;;;;;;;;;;;;;;;;;;2132271;27;19945;-45
2022/10/06 05:20:40;;;;;;;;;;;;;;;;;;2132326;27;19927;-46
2022/10/06 05:21:40;;;;;;;;;;;;;;;;;;2132127;27;20066;-45
2022/10/06 05:22:41;;;;;;;;;;;;;;;;;;2132217;27;19966;-45
2022/10/06 05:23:42;;;;;;;;;;;;;;;;;;2132145;27;19932;-45
2022/10/06 05:24:43;;;;;;;;;;;;;;;;;;2132583;27;19923;-45
2022/10/06 05:25:44;;;;;;;;;;;;;;;;;;2132336;27;20063;-43
2022/10/06 05:26:44;;;;;;;;;;;;;;;;;;2132142;27;19954;-43
2022/10/06 05:27:45;;;;;;;;;;;;;;;;;;2132207;27;19931;-43
2022/10/06 05:28:46;;;;;;;;;;;;;;;;;;2132325;27;20004;-43
2022/10/06 05:30:15;;;;;;;;;;;;;;;;;;2132473;27;20244;-45
2022/10/06 05:31:45;;;;;;;;;;;;;;;;;;2132107;27;19924;-45
2022/10/06 05:33:14;;;;;;;;;;;;;;;;;;2132304;27;19927;-46
2022/10/06 05:34:43;;;;;;;;;;;;;;;;;;2132307;27;19923;-45
2022/10/06 05:36:12;;;;;;;;;;;;;;;;;;2132238;27;19923;-45
2022/10/06 05:37:41;;;;;;;;;;;;;;;;;;2132269;27;20328;-45
2022/10/06 05:39:11;;;;;;;;;;;;;;;;;;2132360;27;19923;-43
2022/10/06 05:40:40;;;;;;;;;;;;;;;;;;2132338;27;19926;-43
2022/10/06 05:42:10;;;;;;;;;;;;;;;;;;2131998;27;19923;-43
2022/10/06 05:43:39;;;;;;;;;;;;;;;;;;2132288;27;19923;-43
2022/10/06 05:45:08;;;;;;;;;;;;;;;;;;2132187;27;20303;-43
2022/10/06 05:46:37;;;;;;;;;;;;;;;;;;2132124;27;19927;-43
2022/10/06 05:48:06;;;;;;;;;;;;;;;;;;2132111;27;19976;-43
2022/10/06 05:49:35;;;;;;;;;;;;;;;;;;2132155;27;19958;-43
2022/10/06 05:51:04;;;;;;;;;;;;;;;;;;2131903;27;19923;-43
2022/10/06 05:52:33;;;;;;;;;;;;;;;;;;2132262;27;19923;-45
2022/10/06 05:54:03;;;;;;;;;;;;;;;;;;2132118;27;20368;-45
2022/10/06 05:55:32;;;;;;;;;;;;;;;;;;2132145;27;19923;-45
2022/10/06 05:57:01;;;;;;;;;;;;;;;;;;2132216;27;20354;-46
2022/10/06 05:58:30;;;;;;;;;;;;;;;;;;2132089;27;19970;-45
2022/10/06 05:59:59;;;;;;;;;;;;;;;;;;2132108;27;19923;-45
2022/10/06 06:01:28;;;;;;;;;;;;;;;;;;2131975;27;19923;-46
2022/10/06 06:02:57;;;;;;;;;;;;;;;;;;2132012;27;19923;-45
2022/10/06 06:04:27;;;;;;;;;;;;;;;;;;2132008;27;19927;-46
2022/10/06 06:05:27;;;;;;;;;;;;;;;;;;2132042;27;19929;-45
2022/10/06 06:06:28;;;;;;;;;;;;;;;;;;2131868;27;19970;-45
2022/10/06 06:07:29;;;;;;;;;;;;;;;;;;2132078;27;20055;-45
2022/10/06 06:08:30;;;;;;;;;;;;;;;;;;2132148;27;20034;-45
2022/10/06 06:09:32;;;;;;;;;;;;;;;;;;2131988;27;20500;-45
2022/10/06 06:10:33;;;;;;;;;;;;;;;;;;2131983;27;19924;-45
2022/10/06 06:11:33;;;;;;;;;;;;;;;;;;2131933;27;19930;-45
2022/10/06 06:12:34;;;;;;;;;;;;;;;;;;2132102;27;19955;-45
2022/10/06 06:13:35;;;;;;;;;;;;;;;;;;2131907;27;20273;-45
2022/10/06 06:16:02;;;;;;;;;;;;;;;;;;2131961;27;19927;-46
2022/10/06 06:17:04;;;;;;;;;;;;;;;;;;2131804;27;20187;-45
2022/10/06 06:18:05;;;;;;;;;;;;;;;;;;2131848;27;19923;-45
2022/10/06 06:19:06;;;;;;;;;;;;;;;;;;2132065;27;20019;-46
2022/10/06 06:20:06;;;;;;;;;;;;;;;;;;2132157;27;20322;-45
2022/10/06 06:21:07;;;;;;;;;;;;;;;;;;2132048;27;19931;-46
2022/10/06 06:22:08;;;;;;;;;;;;;;;;;;2131840;27;19929;-44
2022/10/06 06:23:09;;;;;;;;;;;;;;;;;;2132075;27;19923;-45
2022/10/06 06:24:10;;;;;;;;;;;;;;;;;;2131870;27;19962;-45
2022/10/06 06:25:11;;;;;;;;;;;;;;;;;;2132119;27;19969;-44
2022/10/06 06:26:13;;;;;;;;;;;;;;;;;;2132035;27;19923;-45
2022/10/06 06:27:13;;;;;;;;;;;;;;;;;;2131756;27;19948;-44
2022/10/06 06:28:14;;;;;;;;;;;;;;;;;;2131768;27;20025;-44
2022/10/06 06:29:15;;;;;;;;;;;;;;;;;;2131812;27;19987;-45
2022/10/06 06:30:16;;;;;;;;;;;;;;;;;;2132057;27;20051;-45
2022/10/06 06:31:18;;;;;;;;;;;;;;;;;;2132089;27;19927;-44
2022/10/06 06:32:20;;;;;;;;;;;;;;;;;;2131981;27;20006;-43
2022/10/06 06:33:21;;;;;;;;;;;;;;;;;;2131746;27;19968;-44
2022/10/06 06:34:22;;;;;;;;;;;;;;;;;;2132345;27;19930;-44
2022/10/06 06:35:23;;;;;;;;;;;;;;;;;;2131957;27;19923;-43
2022/10/06 06:36:54;;;;;;;;;;;;;;;;;;2131857;27;19923;-43
2022/10/06 06:38:24;;;;;;;;;;;;;;;;;;2131845;27;19966;-43
2022/10/06 06:39:53;;;;;;;;;;;;;;;;;;2131927;27;20013;-43
2022/10/06 06:40:54;;;;;;;;;;;;;;;;;;2131874;27;19931;-43
2022/10/06 06:41:55;;;;;;;;;;;;;;;;;;2131801;27;20030;-43
2022/10/06 06:42:55;;;;;;;;;;;;;;;;;;2131950;27;20314;-43
2022/10/06 06:43:58;;;;;;;;;;;;;;;;;;2131939;27;20014;-43
2022/10/06 06:44:59;;;;;;;;;;;;;;;;;;2131776;27;19923;-43
2022/10/06 06:46:00;;;;;;;;;;;;;;;;;;2131919;27;19923;-43
2022/10/06 06:47:01;;;;;;;;;;;;;;;;;;2131495;27;19923;-44
2022/10/06 06:48:04;;;;;;;;;;;;;;;;;;2131915;27;20374;-43
2022/10/06 06:49:05;;;;;;;;;;;;;;;;;;2131895;27;20501;-43
2022/10/06 06:50:09;;;;;;;;;;;;;;;;;;2131886;27;19927;-43
2022/10/06 06:51:10;;;;;;;;;;;;;;;;;;2131674;27;20398;-43
2022/10/06 06:52:11;;;;;;;;;;;;;;;;;;2131870;27;19923;-43
2022/10/06 06:53:13;;;;;;;;;;;;;;;;;;2132119;27;19970;-44
2022/10/06 06:54:17;;;;;;;;;;;;;;;;;;2131618;27;19927;-46
2022/10/06 06:55:17;;;;;;;;;;;;;;;;;;2131915;27;19923;-43
2022/10/06 06:56:18;;;;;;;;;;;;;;;;;;2131818;27;19972;-43
2022/10/06 06:57:19;;;;;;;;;;;;;;;;;;2131589;27;20420;-44
2022/10/06 06:58:20;;;;;;;;;;;;;;;;;;2131708;27;19930;-44
2022/10/06 06:59:21;;;;;;;;;;;;;;;;;;2131791;27;19923;-41
2022/10/06 07:00:22;;;;;;;;;;;;;;;;;;2131513;27;20329;-43
2022/10/06 07:01:23;;;;;;;;;;;;;;;;;;2131618;27;19923;-41
2022/10/06 07:02:28;;;;;;;;;;;;;;;;;;2131924;27;19952;-43
2022/10/06 07:03:29;;;;;;;;;;;;;;;;;;2131872;27;19922;-46
2022/10/06 07:04:50;;;;;;;;;;;;;;;;;;2131544;27;19927;-44
2022/10/06 07:05:51;;;;;;;;;;;;;;;;;;2131834;27;19924;-42
2022/10/06 07:06:57;;;;;;;;;;;;;;;;;;2131565;27;19993;-45
2022/10/06 07:07:58;;;;;;;;;;;;;;;;;;2131929;27;19931;-44
2022/10/06 07:08:59;;;;;;;;;;;;;;;;;;2131745;27;19923;-45
2022/10/06 07:10:00;;;;;;;;;;;;;;;;;;2132170;27;19923;-45
2022/10/06 07:11:01;;;;;;;;;;;;;;;;;;2131697;27;20229;-44
2022/10/06 07:12:02;;;;;;;;;;;;;;;;;;2131379;27;19923;-45